sensor_id;sensor_type;location;lat;lon;timestamp;temperature;humidity
36458;DHT22;22480;50.546;12.292;2023-04-15T00:00:06;4.80;99.90
36458;DHT22;22480;50.546;12.292;2023-04-15T00:02:38;4.80;99.90
36458;DHT22;22480;50.546;12.292;2023-04-15T00:05:04;4.80;99.90
36458;DHT22;22480;50.546;12.292;2023-04-15T00:07:30;4.80;99.90
36458;DHT22;22480;50.546;12.292;2023-04-15T00:09:56;4.80;99.90
36458;DHT22;22480;50.546;12.292;2023-04-15T00:12:24;4.80;99.90
36458;DHT22;22480;50.546;12.292;2023-04-15T00:14:49;4.80;99.90
36458;DHT22;22480;50.546;12.292;2023-04-15T00:17:15;4.80;99.90
36458;DHT22;22480;50.546;12.292;2023-04-15T00:19:42;4.70;99.90
36458;DHT22;22480;50.546;12.292;2023-04-15T00:22:09;4.70;99.90
36458;DHT22;22480;50.546;12.292;2023-04-15T00:24:34;4.70;99.90
36458;DHT22;22480;50.546;12.292;2023-04-15T00:27:01;4.70;99.90
36458;DHT22;22480;50.546;12.292;2023-04-15T00:29:28;4.70;99.90
36458;DHT22;22480;50.546;12.292;2023-04-15T00:31:55;4.70;99.90
36458;DHT22;22480;50.546;12.292;2023-04-15T00:34:22;4.70;99.90
36458;DHT22;22480;50.546;12.292;2023-04-15T00:36:48;4.70;99.90
36458;DHT22;22480;50.546;12.292;2023-04-15T00:39:14;4.70;99.90
36458;DHT22;22480;50.546;12.292;2023-04-15T00:41:42;4.70;99.90
36458;DHT22;22480;50.546;12.292;2023-04-15T00:44:08;4.70;99.90
36458;DHT22;22480;50.546;12.292;2023-04-15T00:46:36;4.70;99.90
36458;DHT22;22480;50.546;12.292;2023-04-15T00:49:06;4.70;99.90
36458;DHT22;22480;50.546;12.292;2023-04-15T00:51:35;4.70;99.90
36458;DHT22;22480;50.546;12.292;2023-04-15T00:54:02;4.70;99.90
36458;DHT22;22480;50.546;12.292;2023-04-15T00:56:29;4.70;99.90
36458;DHT22;22480;50.546;12.292;2023-04-15T00:58:56;4.70;99.90
36458;DHT22;22480;50.546;12.292;2023-04-15T01:01:24;4.70;99.90
36458;DHT22;22480;50.546;12.292;2023-04-15T01:03:51;4.70;99.90
36458;DHT22;22480;50.546;12.292;2023-04-15T01:06:17;4.70;99.90
36458;DHT22;22480;50.546;12.292;2023-04-15T01:08:44;4.70;99.90
36458;DHT22;22480;50.546;12.292;2023-04-15T01:11:12;4.70;99.90
36458;DHT22;22480;50.546;12.292;2023-04-15T01:13:39;4.70;99.90
36458;DHT22;22480;50.546;12.292;2023-04-15T01:16:05;4.70;99.90
36458;DHT22;22480;50.546;12.292;2023-04-15T01:18:32;4.70;99.90
36458;DHT22;22480;50.546;12.292;2023-04-15T01:21:00;4.80;99.90
36458;DHT22;22480;50.546;12.292;2023-04-15T01:23:27;4.70;99.90
36458;DHT22;22480;50.546;12.292;2023-04-15T01:25:53;4.80;99.90
36458;DHT22;22480;50.546;12.292;2023-04-15T01:28:19;4.80;99.90
36458;DHT22;22480;50.546;12.292;2023-04-15T01:30:45;4.80;99.90
36458;DHT22;22480;50.546;12.292;2023-04-15T01:33:13;4.80;99.90
36458;DHT22;22480;50.546;12.292;2023-04-15T01:35:39;4.80;99.90
36458;DHT22;22480;50.546;12.292;2023-04-15T01:38:07;4.80;99.90
36458;DHT22;22480;50.546;12.292;2023-04-15T01:40:34;4.80;99.90
36458;DHT22;22480;50.546;12.292;2023-04-15T01:43:02;4.80;99.90
36458;DHT22;22480;50.546;12.292;2023-04-15T01:45:28;4.80;99.90
36458;DHT22;22480;50.546;12.292;2023-04-15T01:47:54;4.80;99.90
36458;DHT22;22480;50.546;12.292;2023-04-15T01:50:20;4.80;99.90
36458;DHT22;22480;50.546;12.292;2023-04-15T01:52:47;4.80;99.90
36458;DHT22;22480;50.546;12.292;2023-04-15T01:55:13;4.80;99.90
36458;DHT22;22480;50.546;12.292;2023-04-15T01:57:39;4.80;99.90
36458;DHT22;22480;50.546;12.292;2023-04-15T02:00:06;4.80;99.90
36458;DHT22;22480;50.546;12.292;2023-04-15T02:02:41;4.80;99.90
36458;DHT22;22480;50.546;12.292;2023-04-15T02:05:07;4.80;99.90
36458;DHT22;22480;50.546;12.292;2023-04-15T02:07:32;4.70;99.90
36458;DHT22;22480;50.546;12.292;2023-04-15T02:09:58;4.70;99.90
36458;DHT22;22480;50.546;12.292;2023-04-15T02:12:24;4.70;99.90
36458;DHT22;22480;50.546;12.292;2023-04-15T02:14:50;4.70;99.90
36458;DHT22;22480;50.546;12.292;2023-04-15T02:17:16;4.70;99.90
36458;DHT22;22480;50.546;12.292;2023-04-15T02:19:42;4.70;99.90
36458;DHT22;22480;50.546;12.292;2023-04-15T02:22:07;4.70;99.90
36458;DHT22;22480;50.546;12.292;2023-04-15T02:24:33;4.60;99.90
36458;DHT22;22480;50.546;12.292;2023-04-15T02:27:01;4.60;99.90
36458;DHT22;22480;50.546;12.292;2023-04-15T02:29:28;4.70;99.90
36458;DHT22;22480;50.546;12.292;2023-04-15T02:31:53;4.70;99.90
36458;DHT22;22480;50.546;12.292;2023-04-15T02:34:19;4.60;99.90
36458;DHT22;22480;50.546;12.292;2023-04-15T02:36:45;4.60;99.90
36458;DHT22;22480;50.546;12.292;2023-04-15T02:39:14;4.60;99.90
36458;DHT22;22480;50.546;12.292;2023-04-15T02:41:43;4.70;99.90
36458;DHT22;22480;50.546;12.292;2023-04-15T02:44:12;4.60;99.90
36458;DHT22;22480;50.546;12.292;2023-04-15T02:46:38;4.60;99.90
36458;DHT22;22480;50.546;12.292;2023-04-15T02:49:05;4.60;99.90
36458;DHT22;22480;50.546;12.292;2023-04-15T02:51:31;4.60;99.90
36458;DHT22;22480;50.546;12.292;2023-04-15T02:53:57;4.60;99.90
36458;DHT22;22480;50.546;12.292;2023-04-15T02:56:22;4.60;99.90
36458;DHT22;22480;50.546;12.292;2023-04-15T02:58:48;4.70;99.90
36458;DHT22;22480;50.546;12.292;2023-04-15T03:01:15;4.60;99.90
36458;DHT22;22480;50.546;12.292;2023-04-15T03:03:41;4.60;99.90
36458;DHT22;22480;50.546;12.292;2023-04-15T03:06:07;4.60;99.90
36458;DHT22;22480;50.546;12.292;2023-04-15T03:08:33;4.60;99.90
36458;DHT22;22480;50.546;12.292;2023-04-15T03:10:59;4.60;99.90
36458;DHT22;22480;50.546;12.292;2023-04-15T03:13:27;4.60;99.90
36458;DHT22;22480;50.546;12.292;2023-04-15T03:15:54;4.60;99.90
36458;DHT22;22480;50.546;12.292;2023-04-15T03:18:22;4.60;99.90
36458;DHT22;22480;50.546;12.292;2023-04-15T03:20:48;4.60;99.90
36458;DHT22;22480;50.546;12.292;2023-04-15T03:23:14;4.70;99.90
36458;DHT22;22480;50.546;12.292;2023-04-15T03:25:39;4.70;99.90
36458;DHT22;22480;50.546;12.292;2023-04-15T03:28:06;4.70;99.90
36458;DHT22;22480;50.546;12.292;2023-04-15T03:30:32;4.70;99.90
36458;DHT22;22480;50.546;12.292;2023-04-15T03:32:58;4.60;99.90
36458;DHT22;22480;50.546;12.292;2023-04-15T03:35:24;4.60;99.90
36458;DHT22;22480;50.546;12.292;2023-04-15T03:37:50;4.60;99.90
36458;DHT22;22480;50.546;12.292;2023-04-15T03:40:16;4.60;99.90
36458;DHT22;22480;50.546;12.292;2023-04-15T03:42:42;4.70;99.90
36458;DHT22;22480;50.546;12.292;2023-04-15T03:45:08;4.70;99.90
36458;DHT22;22480;50.546;12.292;2023-04-15T03:47:34;4.60;99.90
36458;DHT22;22480;50.546;12.292;2023-04-15T03:49:59;4.60;99.90
36458;DHT22;22480;50.546;12.292;2023-04-15T03:52:25;4.60;99.90
36458;DHT22;22480;50.546;12.292;2023-04-15T03:54:51;4.60;99.90
36458;DHT22;22480;50.546;12.292;2023-04-15T03:57:17;4.60;99.90
36458;DHT22;22480;50.546;12.292;2023-04-15T03:59:43;4.60;99.90
36458;DHT22;22480;50.546;12.292;2023-04-15T04:02:08;4.60;99.90
36458;DHT22;22480;50.546;12.292;2023-04-15T04:04:34;4.50;99.90
36458;DHT22;22480;50.546;12.292;2023-04-15T04:07:00;4.60;99.90
36458;DHT22;22480;50.546;12.292;2023-04-15T04:09:25;4.60;99.90
36458;DHT22;22480;50.546;12.292;2023-04-15T04:11:52;4.60;99.90
36458;DHT22;22480;50.546;12.292;2023-04-15T04:14:17;4.60;99.90
36458;DHT22;22480;50.546;12.292;2023-04-15T04:16:43;4.60;99.90
36458;DHT22;22480;50.546;12.292;2023-04-15T04:19:09;4.60;99.90
36458;DHT22;22480;50.546;12.292;2023-04-15T04:21:35;4.60;99.90
36458;DHT22;22480;50.546;12.292;2023-04-15T04:24:01;4.60;99.90
36458;DHT22;22480;50.546;12.292;2023-04-15T04:26:27;4.60;99.90
36458;DHT22;22480;50.546;12.292;2023-04-15T04:28:52;4.60;99.90
36458;DHT22;22480;50.546;12.292;2023-04-15T04:31:18;4.60;99.90
36458;DHT22;22480;50.546;12.292;2023-04-15T04:33:44;4.60;99.90
36458;DHT22;22480;50.546;12.292;2023-04-15T04:36:09;4.60;99.90
36458;DHT22;22480;50.546;12.292;2023-04-15T04:38:35;4.60;99.90
36458;DHT22;22480;50.546;12.292;2023-04-15T04:41:01;4.60;99.90
36458;DHT22;22480;50.546;12.292;2023-04-15T04:43:26;4.70;99.90
36458;DHT22;22480;50.546;12.292;2023-04-15T04:45:52;4.70;99.90
36458;DHT22;22480;50.546;12.292;2023-04-15T04:48:18;4.70;99.90
36458;DHT22;22480;50.546;12.292;2023-04-15T04:50:44;4.70;99.90
36458;DHT22;22480;50.546;12.292;2023-04-15T04:53:11;4.60;99.90
36458;DHT22;22480;50.546;12.292;2023-04-15T04:55:37;4.60;99.90
36458;DHT22;22480;50.546;12.292;2023-04-15T04:58:03;4.60;99.90
36458;DHT22;22480;50.546;12.292;2023-04-15T05:00:28;4.60;99.90
36458;DHT22;22480;50.546;12.292;2023-04-15T05:02:55;4.70;99.90
36458;DHT22;22480;50.546;12.292;2023-04-15T05:05:20;4.70;99.90
36458;DHT22;22480;50.546;12.292;2023-04-15T05:07:46;4.70;99.90
36458;DHT22;22480;50.546;12.292;2023-04-15T05:10:13;4.70;99.90
36458;DHT22;22480;50.546;12.292;2023-04-15T05:12:40;4.70;99.90
36458;DHT22;22480;50.546;12.292;2023-04-15T05:15:06;4.70;99.90
36458;DHT22;22480;50.546;12.292;2023-04-15T05:17:32;4.70;99.90
36458;DHT22;22480;50.546;12.292;2023-04-15T05:20:00;4.70;99.90
36458;DHT22;22480;50.546;12.292;2023-04-15T05:22:26;4.70;99.90
36458;DHT22;22480;50.546;12.292;2023-04-15T05:24:51;4.80;99.90
36458;DHT22;22480;50.546;12.292;2023-04-15T05:27:17;4.80;99.90
36458;DHT22;22480;50.546;12.292;2023-04-15T05:29:43;4.80;99.90
36458;DHT22;22480;50.546;12.292;2023-04-15T05:32:09;4.90;99.90
36458;DHT22;22480;50.546;12.292;2023-04-15T05:34:35;4.90;99.90
36458;DHT22;22480;50.546;12.292;2023-04-15T05:37:01;4.90;99.90
36458;DHT22;22480;50.546;12.292;2023-04-15T05:39:27;4.90;99.90
36458;DHT22;22480;50.546;12.292;2023-04-15T05:41:53;5.00;99.90
36458;DHT22;22480;50.546;12.292;2023-04-15T05:44:19;5.00;99.90
36458;DHT22;22480;50.546;12.292;2023-04-15T05:46:44;5.10;99.90
36458;DHT22;22480;50.546;12.292;2023-04-15T05:49:10;5.00;99.90
36458;DHT22;22480;50.546;12.292;2023-04-15T05:51:36;5.00;99.90
36458;DHT22;22480;50.546;12.292;2023-04-15T05:54:02;4.90;99.90
36458;DHT22;22480;50.546;12.292;2023-04-15T05:56:27;5.00;99.90
36458;DHT22;22480;50.546;12.292;2023-04-15T05:58:53;4.90;99.90
36458;DHT22;22480;50.546;12.292;2023-04-15T06:01:19;5.00;99.90
36458;DHT22;22480;50.546;12.292;2023-04-15T06:03:45;5.00;99.90
36458;DHT22;22480;50.546;12.292;2023-04-15T06:06:10;5.00;99.90
36458;DHT22;22480;50.546;12.292;2023-04-15T06:08:36;5.00;99.90
36458;DHT22;22480;50.546;12.292;2023-04-15T06:11:02;4.90;99.90
36458;DHT22;22480;50.546;12.292;2023-04-15T06:13:28;5.00;99.90
36458;DHT22;22480;50.546;12.292;2023-04-15T06:15:53;5.00;99.90
36458;DHT22;22480;50.546;12.292;2023-04-15T06:18:19;4.90;99.90
36458;DHT22;22480;50.546;12.292;2023-04-15T06:20:45;4.90;99.90
36458;DHT22;22480;50.546;12.292;2023-04-15T06:23:11;4.90;99.90
36458;DHT22;22480;50.546;12.292;2023-04-15T06:25:37;4.90;99.90
36458;DHT22;22480;50.546;12.292;2023-04-15T06:28:02;4.90;99.90
36458;DHT22;22480;50.546;12.292;2023-04-15T06:30:28;5.00;99.90
36458;DHT22;22480;50.546;12.292;2023-04-15T06:32:54;5.00;99.90
36458;DHT22;22480;50.546;12.292;2023-04-15T06:35:20;4.90;99.90
36458;DHT22;22480;50.546;12.292;2023-04-15T06:37:46;4.90;99.90
36458;DHT22;22480;50.546;12.292;2023-04-15T06:40:12;5.00;99.90
36458;DHT22;22480;50.546;12.292;2023-04-15T06:42:38;5.00;99.90
36458;DHT22;22480;50.546;12.292;2023-04-15T06:45:04;5.00;99.90
36458;DHT22;22480;50.546;12.292;2023-04-15T06:47:31;5.00;99.90
36458;DHT22;22480;50.546;12.292;2023-04-15T06:49:56;5.10;99.90
36458;DHT22;22480;50.546;12.292;2023-04-15T06:52:22;5.00;99.90
36458;DHT22;22480;50.546;12.292;2023-04-15T06:54:48;5.00;99.90
36458;DHT22;22480;50.546;12.292;2023-04-15T06:57:13;5.10;99.90
36458;DHT22;22480;50.546;12.292;2023-04-15T06:59:39;5.10;99.90
36458;DHT22;22480;50.546;12.292;2023-04-15T07:02:06;5.00;99.90
36458;DHT22;22480;50.546;12.292;2023-04-15T07:04:33;5.00;99.90
36458;DHT22;22480;50.546;12.292;2023-04-15T07:07:00;5.00;99.90
36458;DHT22;22480;50.546;12.292;2023-04-15T07:09:27;5.20;99.90
36458;DHT22;22480;50.546;12.292;2023-04-15T07:11:52;5.20;99.90
36458;DHT22;22480;50.546;12.292;2023-04-15T07:14:18;5.20;99.90
36458;DHT22;22480;50.546;12.292;2023-04-15T07:16:43;5.30;99.90
36458;DHT22;22480;50.546;12.292;2023-04-15T07:19:09;5.30;99.90
36458;DHT22;22480;50.546;12.292;2023-04-15T07:21:35;5.30;99.90
36458;DHT22;22480;50.546;12.292;2023-04-15T07:24:00;5.20;99.90
36458;DHT22;22480;50.546;12.292;2023-04-15T07:26:26;5.20;99.90
36458;DHT22;22480;50.546;12.292;2023-04-15T07:28:52;5.40;99.90
36458;DHT22;22480;50.546;12.292;2023-04-15T07:31:18;5.30;99.90
36458;DHT22;22480;50.546;12.292;2023-04-15T07:33:43;5.30;99.90
36458;DHT22;22480;50.546;12.292;2023-04-15T07:36:09;5.40;99.90
36458;DHT22;22480;50.546;12.292;2023-04-15T07:38:35;5.40;99.90
36458;DHT22;22480;50.546;12.292;2023-04-15T07:41:00;5.40;99.90
36458;DHT22;22480;50.546;12.292;2023-04-15T07:43:27;5.40;99.90
36458;DHT22;22480;50.546;12.292;2023-04-15T07:45:52;5.40;99.90
36458;DHT22;22480;50.546;12.292;2023-04-15T07:48:18;5.50;99.90
36458;DHT22;22480;50.546;12.292;2023-04-15T07:50:44;5.50;99.90
36458;DHT22;22480;50.546;12.292;2023-04-15T07:53:09;5.50;99.90
36458;DHT22;22480;50.546;12.292;2023-04-15T07:55:35;5.50;99.90
36458;DHT22;22480;50.546;12.292;2023-04-15T07:58:01;5.50;99.90
36458;DHT22;22480;50.546;12.292;2023-04-15T08:00:26;5.60;99.90
36458;DHT22;22480;50.546;12.292;2023-04-15T08:02:52;5.60;99.90
36458;DHT22;22480;50.546;12.292;2023-04-15T08:05:18;5.70;99.90
36458;DHT22;22480;50.546;12.292;2023-04-15T08:07:44;5.80;99.90
36458;DHT22;22480;50.546;12.292;2023-04-15T08:10:11;5.90;99.90
36458;DHT22;22480;50.546;12.292;2023-04-15T08:12:37;6.00;99.90
36458;DHT22;22480;50.546;12.292;2023-04-15T08:15:03;6.00;99.90
36458;DHT22;22480;50.546;12.292;2023-04-15T08:17:29;6.20;99.90
36458;DHT22;22480;50.546;12.292;2023-04-15T08:19:55;6.20;99.90
36458;DHT22;22480;50.546;12.292;2023-04-15T08:22:20;6.20;99.90
36458;DHT22;22480;50.546;12.292;2023-04-15T08:24:47;6.30;99.90
36458;DHT22;22480;50.546;12.292;2023-04-15T08:27:12;6.30;99.90
36458;DHT22;22480;50.546;12.292;2023-04-15T08:29:38;6.30;99.90
36458;DHT22;22480;50.546;12.292;2023-04-15T08:32:05;6.30;99.90
36458;DHT22;22480;50.546;12.292;2023-04-15T08:34:31;6.40;99.90
36458;DHT22;22480;50.546;12.292;2023-04-15T08:36:56;6.40;99.90
36458;DHT22;22480;50.546;12.292;2023-04-15T08:39:22;6.40;99.90
36458;DHT22;22480;50.546;12.292;2023-04-15T08:41:51;6.40;99.90
36458;DHT22;22480;50.546;12.292;2023-04-15T08:44:22;6.30;99.90
36458;DHT22;22480;50.546;12.292;2023-04-15T08:46:49;6.40;99.90
36458;DHT22;22480;50.546;12.292;2023-04-15T08:49:16;6.40;99.90
36458;DHT22;22480;50.546;12.292;2023-04-15T08:51:44;6.40;99.90
36458;DHT22;22480;50.546;12.292;2023-04-15T08:54:10;6.50;99.90
36458;DHT22;22480;50.546;12.292;2023-04-15T08:56:38;6.40;99.90
36458;DHT22;22480;50.546;12.292;2023-04-15T08:59:04;6.40;99.90
36458;DHT22;22480;50.546;12.292;2023-04-15T09:01:31;6.40;99.90
36458;DHT22;22480;50.546;12.292;2023-04-15T09:03:58;6.40;99.90
36458;DHT22;22480;50.546;12.292;2023-04-15T09:06:24;6.40;99.90
36458;DHT22;22480;50.546;12.292;2023-04-15T09:08:51;6.50;99.90
36458;DHT22;22480;50.546;12.292;2023-04-15T09:11:17;6.50;99.90
36458;DHT22;22480;50.546;12.292;2023-04-15T09:13:44;6.50;99.90
36458;DHT22;22480;50.546;12.292;2023-04-15T09:16:09;6.50;99.90
36458;DHT22;22480;50.546;12.292;2023-04-15T09:18:37;6.50;99.90
36458;DHT22;22480;50.546;12.292;2023-04-15T09:23:31;6.50;99.90
36458;DHT22;22480;50.546;12.292;2023-04-15T09:25:57;6.70;99.90
36458;DHT22;22480;50.546;12.292;2023-04-15T09:28:24;6.70;99.90
36458;DHT22;22480;50.546;12.292;2023-04-15T09:30:55;6.70;99.90
36458;DHT22;22480;50.546;12.292;2023-04-15T09:33:21;6.70;99.90
36458;DHT22;22480;50.546;12.292;2023-04-15T09:36:04;6.70;99.90
36458;DHT22;22480;50.546;12.292;2023-04-15T09:38:30;6.60;99.90
36458;DHT22;22480;50.546;12.292;2023-04-15T09:40:57;6.70;99.90
36458;DHT22;22480;50.546;12.292;2023-04-15T09:43:39;6.80;99.90
36458;DHT22;22480;50.546;12.292;2023-04-15T09:46:05;6.90;99.90
36458;DHT22;22480;50.546;12.292;2023-04-15T09:48:31;6.90;99.90
36458;DHT22;22480;50.546;12.292;2023-04-15T09:50:58;7.00;99.90
36458;DHT22;22480;50.546;12.292;2023-04-15T09:53:25;7.00;99.90
36458;DHT22;22480;50.546;12.292;2023-04-15T09:55:52;7.10;99.90
36458;DHT22;22480;50.546;12.292;2023-04-15T09:58:21;7.10;99.90
36458;DHT22;22480;50.546;12.292;2023-04-15T10:00:48;7.00;99.90
36458;DHT22;22480;50.546;12.292;2023-04-15T10:03:26;7.00;99.90
36458;DHT22;22480;50.546;12.292;2023-04-15T10:05:54;6.90;99.90
36458;DHT22;22480;50.546;12.292;2023-04-15T10:08:22;7.00;99.90
36458;DHT22;22480;50.546;12.292;2023-04-15T10:10:50;7.10;99.90
36458;DHT22;22480;50.546;12.292;2023-04-15T10:13:21;7.10;99.90
36458;DHT22;22480;50.546;12.292;2023-04-15T10:15:58;7.00;99.90
36458;DHT22;22480;50.546;12.292;2023-04-15T10:18:26;7.00;99.90
36458;DHT22;22480;50.546;12.292;2023-04-15T10:20:52;7.00;99.90
36458;DHT22;22480;50.546;12.292;2023-04-15T10:23:19;7.10;99.90
36458;DHT22;22480;50.546;12.292;2023-04-15T10:25:46;7.20;99.90
36458;DHT22;22480;50.546;12.292;2023-04-15T10:28:14;7.30;99.90
36458;DHT22;22480;50.546;12.292;2023-04-15T10:30:41;7.40;99.90
36458;DHT22;22480;50.546;12.292;2023-04-15T10:33:08;7.40;99.90
36458;DHT22;22480;50.546;12.292;2023-04-15T10:35:35;7.50;99.90
36458;DHT22;22480;50.546;12.292;2023-04-15T10:38:01;7.50;99.90
36458;DHT22;22480;50.546;12.292;2023-04-15T10:40:31;7.50;99.90
36458;DHT22;22480;50.546;12.292;2023-04-15T10:43:01;7.50;99.90
36458;DHT22;22480;50.546;12.292;2023-04-15T10:45:32;7.50;99.90
36458;DHT22;22480;50.546;12.292;2023-04-15T10:48:00;7.40;99.90
36458;DHT22;22480;50.546;12.292;2023-04-15T10:50:27;7.40;99.90
36458;DHT22;22480;50.546;12.292;2023-04-15T10:52:55;7.50;99.90
36458;DHT22;22480;50.546;12.292;2023-04-15T10:55:26;7.50;99.90
36458;DHT22;22480;50.546;12.292;2023-04-15T10:57:59;7.50;99.90
36458;DHT22;22480;50.546;12.292;2023-04-15T11:00:28;7.70;99.90
36458;DHT22;22480;50.546;12.292;2023-04-15T11:05:22;7.70;99.90
36458;DHT22;22480;50.546;12.292;2023-04-15T11:08:09;7.60;99.90
36458;DHT22;22480;50.546;12.292;2023-04-15T11:13:02;7.40;99.90
36458;DHT22;22480;50.546;12.292;2023-04-15T11:15:34;7.40;99.90
36458;DHT22;22480;50.546;12.292;2023-04-15T11:18:16;7.40;99.90
36458;DHT22;22480;50.546;12.292;2023-04-15T11:20:47;7.50;99.90
36458;DHT22;22480;50.546;12.292;2023-04-15T11:23:18;7.70;99.90
36458;DHT22;22480;50.546;12.292;2023-04-15T11:25:44;7.80;99.90
36458;DHT22;22480;50.546;12.292;2023-04-15T11:28:11;8.20;99.90
36458;DHT22;22480;50.546;12.292;2023-04-15T11:30:38;8.20;99.90
36458;DHT22;22480;50.546;12.292;2023-04-15T11:33:06;8.30;99.90
36458;DHT22;22480;50.546;12.292;2023-04-15T11:35:33;8.30;99.90
36458;DHT22;22480;50.546;12.292;2023-04-15T11:38:08;8.50;99.90
36458;DHT22;22480;50.546;12.292;2023-04-15T11:40:34;8.50;99.90
36458;DHT22;22480;50.546;12.292;2023-04-15T11:43:13;8.40;99.90
36458;DHT22;22480;50.546;12.292;2023-04-15T11:45:56;8.30;99.90
36458;DHT22;22480;50.546;12.292;2023-04-15T11:48:24;8.30;99.90
36458;DHT22;22480;50.546;12.292;2023-04-15T11:50:55;8.30;99.90
36458;DHT22;22480;50.546;12.292;2023-04-15T11:53:22;8.30;99.90
36458;DHT22;22480;50.546;12.292;2023-04-15T11:55:50;8.40;99.90
36458;DHT22;22480;50.546;12.292;2023-04-15T12:01:01;8.50;99.90
36458;DHT22;22480;50.546;12.292;2023-04-15T12:03:35;8.40;99.90
36458;DHT22;22480;50.546;12.292;2023-04-15T12:06:06;8.30;99.90
36458;DHT22;22480;50.546;12.292;2023-04-15T12:11:18;7.80;99.90
36458;DHT22;22480;50.546;12.292;2023-04-15T12:13:49;7.80;99.90
36458;DHT22;22480;50.546;12.292;2023-04-15T12:16:18;7.80;99.90
36458;DHT22;22480;50.546;12.292;2023-04-15T12:18:51;7.80;99.90
36458;DHT22;22480;50.546;12.292;2023-04-15T12:21:21;7.80;99.90
36458;DHT22;22480;50.546;12.292;2023-04-15T12:23:51;7.80;99.90
36458;DHT22;22480;50.546;12.292;2023-04-15T12:26:24;7.80;99.90
36458;DHT22;22480;50.546;12.292;2023-04-15T12:28:54;7.90;99.90
36458;DHT22;22480;50.546;12.292;2023-04-15T12:31:20;7.90;99.90
36458;DHT22;22480;50.546;12.292;2023-04-15T12:33:49;8.00;99.90
36458;DHT22;22480;50.546;12.292;2023-04-15T12:36:15;8.00;99.90
36458;DHT22;22480;50.546;12.292;2023-04-15T12:38:41;7.90;99.90
36458;DHT22;22480;50.546;12.292;2023-04-15T12:41:07;7.80;99.90
36458;DHT22;22480;50.546;12.292;2023-04-15T12:43:32;7.70;99.90
36458;DHT22;22480;50.546;12.292;2023-04-15T12:45:58;7.70;99.90
36458;DHT22;22480;50.546;12.292;2023-04-15T12:48:24;7.60;99.90
36458;DHT22;22480;50.546;12.292;2023-04-15T12:50:49;7.50;99.90
36458;DHT22;22480;50.546;12.292;2023-04-15T12:53:15;7.40;99.90
36458;DHT22;22480;50.546;12.292;2023-04-15T12:55:41;7.40;99.90
36458;DHT22;22480;50.546;12.292;2023-04-15T12:58:06;7.40;99.90
36458;DHT22;22480;50.546;12.292;2023-04-15T13:00:34;7.40;99.90
36458;DHT22;22480;50.546;12.292;2023-04-15T13:02:59;7.30;99.90
36458;DHT22;22480;50.546;12.292;2023-04-15T13:05:25;7.40;99.90
36458;DHT22;22480;50.546;12.292;2023-04-15T13:07:51;7.40;99.90
36458;DHT22;22480;50.546;12.292;2023-04-15T13:10:16;7.40;99.90
36458;DHT22;22480;50.546;12.292;2023-04-15T13:12:42;7.30;99.90
36458;DHT22;22480;50.546;12.292;2023-04-15T13:15:08;7.30;99.90
36458;DHT22;22480;50.546;12.292;2023-04-15T13:17:37;7.40;99.90
36458;DHT22;22480;50.546;12.292;2023-04-15T13:20:03;7.40;99.90
36458;DHT22;22480;50.546;12.292;2023-04-15T13:22:29;7.40;99.90
36458;DHT22;22480;50.546;12.292;2023-04-15T13:24:55;7.40;99.90
36458;DHT22;22480;50.546;12.292;2023-04-15T13:27:21;7.40;99.90
36458;DHT22;22480;50.546;12.292;2023-04-15T13:29:47;7.30;99.90
36458;DHT22;22480;50.546;12.292;2023-04-15T13:32:13;7.40;99.90
36458;DHT22;22480;50.546;12.292;2023-04-15T13:34:38;7.40;99.90
36458;DHT22;22480;50.546;12.292;2023-04-15T13:37:08;7.40;99.90
36458;DHT22;22480;50.546;12.292;2023-04-15T13:39:34;7.40;99.90
36458;DHT22;22480;50.546;12.292;2023-04-15T13:42:00;7.40;99.90
36458;DHT22;22480;50.546;12.292;2023-04-15T13:44:25;7.40;99.90
36458;DHT22;22480;50.546;12.292;2023-04-15T13:46:51;7.50;99.90
36458;DHT22;22480;50.546;12.292;2023-04-15T13:49:17;7.50;99.90
36458;DHT22;22480;50.546;12.292;2023-04-15T13:51:43;7.60;99.90
36458;DHT22;22480;50.546;12.292;2023-04-15T13:54:08;7.70;99.90
36458;DHT22;22480;50.546;12.292;2023-04-15T13:56:34;7.70;99.90
36458;DHT22;22480;50.546;12.292;2023-04-15T13:59:00;7.80;99.90
36458;DHT22;22480;50.546;12.292;2023-04-15T14:01:28;7.80;99.90
36458;DHT22;22480;50.546;12.292;2023-04-15T14:03:54;7.90;99.90
36458;DHT22;22480;50.546;12.292;2023-04-15T14:06:20;7.80;99.90
36458;DHT22;22480;50.546;12.292;2023-04-15T14:08:45;7.80;99.90
36458;DHT22;22480;50.546;12.292;2023-04-15T14:11:11;7.80;99.90
36458;DHT22;22480;50.546;12.292;2023-04-15T14:13:37;7.70;99.90
36458;DHT22;22480;50.546;12.292;2023-04-15T14:16:03;7.60;99.90
36458;DHT22;22480;50.546;12.292;2023-04-15T14:18:29;7.60;99.90
36458;DHT22;22480;50.546;12.292;2023-04-15T14:20:55;7.50;99.90
36458;DHT22;22480;50.546;12.292;2023-04-15T14:23:22;7.50;99.90
36458;DHT22;22480;50.546;12.292;2023-04-15T14:25:47;7.40;99.90
36458;DHT22;22480;50.546;12.292;2023-04-15T14:28:13;7.50;99.90
36458;DHT22;22480;50.546;12.292;2023-04-15T14:30:39;7.50;99.90
36458;DHT22;22480;50.546;12.292;2023-04-15T14:33:05;7.50;99.90
36458;DHT22;22480;50.546;12.292;2023-04-15T14:35:31;7.50;99.90
36458;DHT22;22480;50.546;12.292;2023-04-15T14:37:57;7.50;99.90
36458;DHT22;22480;50.546;12.292;2023-04-15T14:40:22;7.60;99.90
36458;DHT22;22480;50.546;12.292;2023-04-15T14:42:48;7.60;99.90
36458;DHT22;22480;50.546;12.292;2023-04-15T14:45:14;7.60;99.90
36458;DHT22;22480;50.546;12.292;2023-04-15T14:47:39;7.60;99.90
36458;DHT22;22480;50.546;12.292;2023-04-15T14:50:06;7.60;99.90
36458;DHT22;22480;50.546;12.292;2023-04-15T14:52:31;7.50;99.90
36458;DHT22;22480;50.546;12.292;2023-04-15T14:55:04;7.50;99.90
36458;DHT22;22480;50.546;12.292;2023-04-15T14:57:30;7.40;99.90
36458;DHT22;22480;50.546;12.292;2023-04-15T14:59:56;7.40;99.90
36458;DHT22;22480;50.546;12.292;2023-04-15T15:02:22;7.40;99.90
36458;DHT22;22480;50.546;12.292;2023-04-15T15:04:48;7.40;99.90
36458;DHT22;22480;50.546;12.292;2023-04-15T15:07:13;7.40;99.90
36458;DHT22;22480;50.546;12.292;2023-04-15T15:09:39;7.40;99.90
36458;DHT22;22480;50.546;12.292;2023-04-15T15:12:06;7.40;99.90
36458;DHT22;22480;50.546;12.292;2023-04-15T15:14:31;7.40;99.90
36458;DHT22;22480;50.546;12.292;2023-04-15T15:16:57;7.40;99.90
36458;DHT22;22480;50.546;12.292;2023-04-15T15:19:23;7.50;99.90
36458;DHT22;22480;50.546;12.292;2023-04-15T15:21:49;7.50;99.90
36458;DHT22;22480;50.546;12.292;2023-04-15T15:24:15;7.50;99.90
36458;DHT22;22480;50.546;12.292;2023-04-15T15:26:41;7.40;99.90
36458;DHT22;22480;50.546;12.292;2023-04-15T15:29:06;7.40;99.90
36458;DHT22;22480;50.546;12.292;2023-04-15T15:31:33;7.40;99.90
36458;DHT22;22480;50.546;12.292;2023-04-15T15:33:59;7.40;99.90
36458;DHT22;22480;50.546;12.292;2023-04-15T15:36:25;7.40;99.90
36458;DHT22;22480;50.546;12.292;2023-04-15T15:38:52;7.30;99.90